Pittsburgh, Pennsylvania
Traffic Map
Current Weather Conditions
Pittsburgh, Pennsylvania
Clear
Clear
21°
Feels Like: 21°
Wind Chill: 21° Ceiling: Unl
Heat Index: 21° Visibility: 10mi
Dew Point: -5° Wind: 7mph
Humidity: 18% Direction: 100° (E)
Pressure: 30.18in Gusts: 0mph
Raw Report DataKAGC 202253Z AUTO 10006KT 10SM CLR 21/M05 A3018 RMK AO2 SLP225 T02061050 TSNO $
Traffic Incident Summary
Active as of:
Severity:
Category:
InformationThere was an issue retrieving the traffic information for this location. Please try a different location or try again shortly.
Advertisements
At Last! Intellicast now available for iPhone and Android